Time;durP1;ratioP1;P1;durP2;ratioP2;P2;SDS_P1;SDS_P2;PMS_P1;PMS_P2;Temp;Humidity;BMP_temperature;BMP_pressure;BME280_temperature;BME280_humidity;BME280_pressure;Samples;Min_cycle;Max_cycle;Signal;HPM_P1;HPM_P2
2024/04/01 02:24:18;;;;;;;118.30;20.65;;;19.20;65.30;;;;;;5088223;28;20478;-73
2024/04/01 02:26:45;;;;;;;131.20;21.88;;;19.30;64.20;;;;;;5095243;28;20044;-73
2024/04/01 02:29:10;;;;;;;123.72;22.77;;;19.30;64.00;;;;;;5095632;28;20044;-73
2024/04/01 02:31:37;;;;;;;126.82;24.77;;;19.30;63.50;;;;;;5095084;28;20085;-73
2024/04/01 02:34:03;;;;;;;126.45;22.67;;;19.40;62.80;;;;;;5095292;28;20039;-72
2024/04/01 02:36:29;;;;;;;145.32;25.50;;;19.50;62.00;;;;;;5095030;28;20028;-73
2024/04/01 02:38:54;;;;;;;120.40;22.02;;;19.50;61.50;;;;;;5095257;28;20039;-73
2024/04/01 02:41:20;;;;;;;155.32;27.25;;;19.60;61.70;;;;;;5095519;28;20403;-73
2024/04/01 02:43:46;;;;;;;126.95;23.42;;;19.60;61.10;;;;;;5095299;28;20103;-73
2024/04/01 02:46:13;;;;;;;157.93;25.40;;;19.60;61.20;;;;;;5094814;28;20040;-72
2024/04/01 02:48:38;;;;;;;128.60;25.50;;;19.60;60.10;;;;;;5095039;28;20360;-73
2024/04/01 02:51:04;;;;;;;130.48;23.27;;;19.70;60.10;;;;;;5095167;28;20036;-73
2024/04/01 02:53:30;;;;;;;130.63;25.38;;;19.60;60.00;;;;;;5095198;28;20031;-72
2024/04/01 02:55:56;;;;;;;137.07;26.33;;;19.60;59.80;;;;;;5094904;28;20040;-72
2024/04/01 02:58:22;;;;;;;135.30;24.85;;;19.60;59.60;;;;;;5094784;28;20044;-71
2024/04/01 03:00:47;;;;;;;129.82;22.73;;;19.60;60.00;;;;;;5094743;28;20509;-72
2024/04/01 03:03:13;;;;;;;131.02;24.25;;;19.50;59.90;;;;;;5094853;28;20051;-72
2024/04/01 03:05:39;;;;;;;131.25;23.50;;;19.40;60.10;;;;;;5094694;28;20146;-73
2024/04/01 03:08:06;;;;;;;128.40;24.80;;;19.40;60.20;;;;;;5094438;28;20514;-73
2024/04/01 03:10:33;;;;;;;116.93;23.45;;;19.30;61.30;;;;;;5094667;28;20357;-72
2024/04/01 03:13:03;;;;;;;131.88;23.88;;;19.30;60.90;;;;;;5076124;28;20483;-72
2024/04/01 03:15:29;;;;;;;126.80;22.75;;;19.20;61.00;;;;;;5094525;28;20028;-73
2024/04/01 03:17:55;;;;;;;139.32;24.63;;;19.20;61.60;;;;;;5094594;28;20514;-73
2024/04/01 03:20:21;;;;;;;132.25;23.77;;;19.20;61.60;;;;;;5094372;28;20051;-74
2024/04/01 03:22:47;;;;;;;133.73;23.42;;;19.10;61.60;;;;;;5094252;28;20495;-73
2024/04/01 03:25:13;;;;;;;117.88;23.40;;;19.10;61.80;;;;;;5094190;28;20131;-73
2024/04/01 03:27:38;;;;;;;128.50;22.77;;;19.10;61.90;;;;;;5094144;28;20043;-73
2024/04/01 03:30:05;;;;;;;149.38;25.35;;;19.10;61.50;;;;;;5094120;28;20392;-73
2024/04/01 03:32:31;;;;;;;129.65;25.45;;;19.10;61.70;;;;;;5094074;28;20046;-72
2024/04/01 03:34:56;;;;;;;128.77;23.60;;;19.10;61.60;;;;;;5094168;28;20491;-73
2024/04/01 03:37:22;;;;;;;121.22;22.05;;;19.10;61.30;;;;;;5094066;28;20383;-73
2024/04/01 03:39:49;;;;;;;128.52;24.08;;;19.20;61.30;;;;;;5093758;28;20032;-73
2024/04/01 03:42:15;;;;;;;140.13;25.63;;;19.20;60.70;;;;;;5093909;28;20135;-73
2024/04/01 03:44:41;;;;;;;149.77;23.98;;;19.20;60.30;;;;;;5093763;28;20036;-72
2024/04/01 03:47:07;;;;;;;140.30;26.52;;;19.30;60.10;;;;;;5093831;28;20029;-73
2024/04/01 03:49:33;;;;;;;151.98;26.27;;;19.40;59.10;;;;;;5093814;28;20066;-73
2024/04/01 03:51:59;;;;;;;150.30;25.65;;;19.50;58.70;;;;;;5093716;28;20036;-72
2024/04/01 03:54:25;;;;;;;159.82;27.77;;;19.60;58.30;;;;;;5093624;28;20372;-73
2024/04/01 03:56:51;;;;;;;162.40;27.27;;;19.70;57.50;;;;;;5093807;28;20043;-72
2024/04/01 03:59:18;;;;;;;180.55;29.77;;;19.80;57.20;;;;;;5093640;28;20032;-74
2024/04/01 04:01:47;;;;;;;154.38;26.40;;;19.90;56.10;;;;;;5093602;28;20028;-72
2024/04/01 04:04:13;;;;;;;167.90;31.52;;;20.00;55.80;;;;;;5093762;28;20507;-72
2024/04/01 04:06:39;;;;;;;170.50;29.23;;;20.20;54.70;;;;;;5093375;28;20121;-73
2024/04/01 04:09:15;;;;;;;174.50;30.10;;;20.40;53.90;;;;;;5093552;28;20040;-73
2024/04/01 04:11:49;;;;;;;174.82;31.55;;;20.50;53.50;;;;;;5093185;28;20043;-73
2024/04/01 04:14:18;;;;;;;155.77;28.02;;;20.60;53.60;;;;;;5093438;28;20078;-73
2024/04/01 04:16:45;;;;;;;152.70;28.77;;;20.70;53.20;;;;;;5093334;28;20032;-73
2024/04/01 04:19:11;;;;;;;175.50;30.30;;;20.90;52.80;;;;;;5101387;22;20089;-73
2024/04/01 04:21:37;;;;;;;159.35;29.05;;;20.90;52.50;;;;;;5093384;28;20116;-74
2024/04/01 04:24:02;;;;;;;171.57;30.63;;;21.00;52.30;;;;;;5093252;28;20527;-72
2024/04/01 04:26:28;;;;;;;170.27;29.70;;;21.10;52.00;;;;;;5092935;28;20127;-73
2024/04/01 04:28:54;;;;;;;133.68;27.92;;;21.20;52.00;;;;;;5093220;28;20083;-73
2024/04/01 04:31:20;;;;;;;176.88;30.83;;;21.20;51.80;;;;;;5093241;28;20062;-73
2024/04/01 04:33:46;;;;;;;152.15;28.08;;;21.30;51.60;;;;;;5093399;28;20131;-73
2024/04/01 04:36:12;;;;;;;144.50;27.85;;;21.40;51.60;;;;;;5093009;28;20032;-73
2024/04/01 04:38:38;;;;;;;144.10;28.98;;;21.50;51.20;;;;;;5091601;28;20462;-74
2024/04/01 04:41:06;;;;;;;172.05;29.48;;;21.50;51.10;;;;;;5092954;28;20119;-74
2024/04/01 04:43:32;;;;;;;145.95;30.17;;;21.50;50.20;;;;;;5092366;28;20437;-73
2024/04/01 04:45:59;;;;;;;140.85;27.63;;;21.60;50.70;;;;;;5092674;28;20052;-73
2024/04/01 04:48:28;;;;;;;138.25;25.70;;;21.60;50.70;;;;;;5092850;28;20037;-72
2024/04/01 04:50:54;;;;;;;143.43;26.95;;;21.60;50.90;;;;;;5092884;28;20029;-74
2024/04/01 04:53:20;;;;;;;156.88;27.58;;;21.70;50.70;;;;;;5092758;28;20097;-74
2024/04/01 04:55:46;;;;;;;150.27;29.45;;;21.70;50.40;;;;;;5092775;28;20024;-74
2024/04/01 04:58:11;;;;;;;126.72;25.50;;;21.80;50.60;;;;;;5092530;28;20031;-73
2024/04/01 05:00:37;;;;;;;138.52;25.80;;;21.80;50.20;;;;;;5091337;28;20499;-74
2024/04/01 05:03:06;;;;;;;140.30;26.13;;;21.80;49.90;;;;;;5092586;28;20099;-72
2024/04/01 05:05:33;;;;;;;140.77;26.85;;;21.90;50.20;;;;;;5092705;28;20110;-74
2024/04/01 05:08:00;;;;;;;127.57;24.35;;;21.90;50.20;;;;;;5092928;28;20036;-73
2024/04/01 05:10:26;;;;;;;155.02;28.33;;;21.90;49.70;;;;;;5092572;28;20058;-74
2024/04/01 05:12:51;;;;;;;145.32;26.27;;;22.00;49.70;;;;;;5092280;28;20032;-74
2024/04/01 05:15:17;;;;;;;145.35;27.45;;;22.00;49.90;;;;;;5092614;28;20040;-73
2024/04/01 05:17:43;;;;;;;114.65;22.80;;;22.00;49.30;;;;;;5092591;28;20039;-73
2024/04/01 05:20:13;;;;;;;142.68;24.63;;;22.00;49.60;;;;;;5092149;28;20079;-74
2024/04/01 05:22:39;;;;;;;117.07;23.70;;;22.10;49.30;;;;;;5091856;28;20458;-75
2024/04/01 05:25:05;;;;;;;136.57;26.58;;;22.10;49.10;;;;;;5092045;28;20127;-74
2024/04/01 05:27:30;;;;;;;115.97;23.45;;;22.10;48.90;;;;;;5092363;28;20024;-73
2024/04/01 05:30:09;;;;;;;146.88;25.90;;;22.20;48.60;;;;;;5092299;28;20128;-73
2024/04/01 05:32:37;;;;;;;121.03;24.77;;;22.30;48.50;;;;;;5092068;28;20103;-72
2024/04/01 05:35:05;;;;;;;128.77;24.52;;;22.30;48.90;;;;;;5092219;28;20499;-73
2024/04/01 05:37:32;;;;;;;126.30;25.05;;;22.30;48.70;;;;;;5092458;28;20141;-75
2024/04/01 05:39:58;;;;;;;114.45;23.50;;;22.30;49.40;;;;;;5092623;28;20089;-73
2024/04/01 05:42:24;;;;;;;131.18;25.40;;;22.30;49.40;;;;;;5092020;28;20028;-73
2024/04/01 05:44:49;;;;;;;110.05;23.00;;;22.30;49.20;;;;;;5092150;28;20106;-74
2024/04/01 05:47:15;;;;;;;140.73;23.27;;;22.30;49.50;;;;;;5092113;28;20040;-72
2024/04/01 05:49:41;;;;;;;123.50;22.77;;;22.30;49.60;;;;;;5074095;28;20111;-73
2024/04/01 05:52:07;;;;;;;108.30;21.17;;;22.40;49.50;;;;;;5092188;28;20032;-73
2024/04/01 05:54:33;;;;;;;117.97;23.23;;;22.50;49.70;;;;;;5093726;28;20534;-74
2024/04/01 05:57:00;;;;;;;126.00;22.67;;;22.50;49.40;;;;;;5096554;28;20062;-72
2024/04/01 05:59:26;;;;;;;123.07;22.50;;;22.60;49.60;;;;;;5096516;28;20028;-74
2024/04/01 06:01:52;;;;;;;104.95;22.80;;;22.60;49.50;;;;;;5095985;28;20038;-74
2024/04/01 06:04:22;;;;;;;99.68;22.05;;;22.70;49.50;;;;;;5077880;28;20060;-71
2024/04/01 06:06:48;;;;;;;114.85;21.15;;;22.70;49.20;;;;;;5095963;28;20043;-76
2024/04/01 06:09:14;;;;;;;104.53;21.27;;;22.80;49.30;;;;;;5096327;28;20028;-74
2024/04/01 06:11:41;;;;;;;112.22;21.80;;;22.90;49.00;;;;;;5096155;28;20037;-73
2024/04/01 06:14:07;;;;;;;102.50;20.45;;;23.00;48.70;;;;;;5095876;28;20036;-75
2024/04/01 06:16:37;;;;;;;107.03;21.60;;;23.10;48.90;;;;;;5095841;28;20040;-74
2024/04/01 06:19:03;;;;;;;115.78;22.00;;;23.30;48.70;;;;;;5095637;28;20036;-73
2024/04/01 06:21:29;;;;;;;105.55;20.80;;;23.40;48.70;;;;;;5096084;28;20032;-74
2024/04/01 06:23:54;;;;;;;103.45;20.60;;;23.60;48.10;;;;;;5095794;28;20036;-74
2024/04/01 06:26:20;;;;;;;108.38;19.80;;;23.80;47.90;;;;;;5095801;28;20070;-74
2024/04/01 06:28:48;;;;;;;119.25;21.15;;;24.00;48.00;;;;;;5095536;28;20135;-74
2024/04/01 06:31:15;;;;;;;102.18;20.50;;;24.10;48.00;;;;;;5095588;28;20035;-75
2024/04/01 06:33:41;;;;;;;100.03;19.50;;;24.20;48.10;;;;;;5077509;28;20078;-75
2024/04/01 06:36:07;;;;;;;107.28;20.23;;;24.30;47.80;;;;;;5095615;28;20036;-74
2024/04/01 06:38:33;;;;;;;106.22;18.52;;;24.40;47.10;;;;;;5095968;28;20028;-74
2024/04/01 06:40:59;;;;;;;98.68;21.08;;;24.50;48.10;;;;;;5095224;28;20093;-74
2024/04/01 06:43:25;;;;;;;103.72;19.02;;;24.70;47.90;;;;;;5095544;28;20078;-74
2024/04/01 06:45:59;;;;;;;102.53;18.27;;;25.00;47.50;;;;;;5095497;28;20127;-74
2024/04/01 06:48:26;;;;;;;106.28;17.85;;;25.20;47.50;;;;;;5094160;28;20074;-74
2024/04/01 06:50:52;;;;;;;94.93;19.35;;;25.40;47.50;;;;;;5095427;28;20020;-75
2024/04/01 06:53:18;;;;;;;95.13;19.25;;;25.50;47.30;;;;;;5095219;28;20028;-75
2024/04/01 06:55:44;;;;;;;94.50;19.08;;;25.70;47.10;;;;;;5094560;28;20036;-74
2024/04/01 06:58:10;;;;;;;88.28;16.77;;;25.80;47.10;;;;;;5094854;28;20078;-74
2024/04/01 07:00:36;;;;;;;87.18;18.08;;;26.00;47.10;;;;;;5094803;28;20029;-74
2024/04/01 07:03:02;;;;;;;93.95;18.73;;;26.00;46.90;;;;;;5094617;28;20103;-73
2024/04/01 07:05:29;;;;;;;88.55;17.85;;;26.20;47.10;;;;;;5094045;28;20131;-73
2024/04/01 07:07:54;;;;;;;89.28;17.67;;;26.20;47.40;;;;;;5094501;28;20032;-73
2024/04/01 07:10:20;;;;;;;83.82;17.17;;;26.30;47.20;;;;;;5094541;28;20391;-73
2024/04/01 07:12:46;;;;;;;93.68;17.95;;;26.40;47.30;;;;;;5094287;28;20063;-74
2024/04/01 07:15:12;;;;;;;103.55;19.48;;;26.50;47.50;;;;;;5094494;28;20475;-74
2024/04/01 07:17:38;;;;;;;105.97;18.20;;;26.60;47.30;;;;;;5094606;28;20050;-73
2024/04/01 07:20:05;;;;;;;87.32;16.08;;;26.60;47.50;;;;;;5094691;28;20048;-74
2024/04/01 07:22:31;;;;;;;86.35;17.35;;;26.60;48.40;;;;;;5094539;28;20159;-74
2024/04/01 07:24:57;;;;;;;96.22;17.60;;;26.50;48.00;;;;;;5094268;28;20055;-73
2024/04/01 07:27:22;;;;;;;82.97;16.15;;;26.50;48.20;;;;;;5094168;28;20420;-73
2024/04/01 07:29:49;;;;;;;82.22;16.60;;;26.30;48.50;;;;;;5094125;28;20032;-74
2024/04/01 07:32:14;;;;;;;84.53;17.80;;;26.20;49.10;;;;;;5093902;28;20040;-73
2024/04/01 07:34:40;;;;;;;90.88;18.10;;;26.10;49.70;;;;;;5094166;28;20044;-75
2024/04/01 07:37:06;;;;;;;81.60;17.75;;;25.80;49.90;;;;;;5094248;28;20145;-74
2024/04/01 07:39:33;;;;;;;101.97;18.17;;;25.60;50.50;;;;;;5094124;28;20036;-73
2024/04/01 07:41:59;;;;;;;89.35;18.10;;;25.30;51.40;;;;;;5094067;28;20032;-74
2024/04/01 07:44:24;;;;;;;86.38;17.67;;;25.10;51.70;;;;;;5094088;28;20031;-74
2024/04/01 07:46:50;;;;;;;93.13;17.88;;;25.00;52.20;;;;;;5093946;28;20044;-73
2024/04/01 07:49:16;;;;;;;94.75;17.75;;;24.90;52.50;;;;;;5075799;28;20024;-74
2024/04/01 07:51:41;;;;;;;81.32;17.42;;;24.80;52.90;;;;;;5093970;28;20530;-73
2024/04/01 07:54:07;;;;;;;80.90;16.75;;;24.70;53.30;;;;;;5093595;28;20118;-73
2024/04/01 07:56:33;;;;;;;81.03;16.90;;;24.60;53.70;;;;;;5094254;28;20499;-75
2024/04/01 07:58:59;;;;;;;80.53;16.92;;;24.70;54.20;;;;;;5093894;28;20047;-75
2024/04/01 08:01:24;;;;;;;88.15;16.75;;;24.60;54.20;;;;;;5093492;28;20036;-73
2024/04/01 08:03:50;;;;;;;72.10;16.88;;;24.50;54.30;;;;;;5093692;28;20081;-75
2024/04/01 08:06:16;;;;;;;78.05;15.93;;;24.50;54.80;;;;;;5093589;28;20051;-74
2024/04/01 08:08:42;;;;;;;76.88;16.77;;;24.40;54.90;;;;;;5093244;28;20503;-75
2024/04/01 08:11:08;;;;;;;74.32;16.25;;;24.40;55.10;;;;;;5093207;28;20046;-74
2024/04/01 08:13:33;;;;;;;70.60;15.73;;;24.40;55.20;;;;;;5093455;28;20043;-73
2024/04/01 08:16:03;;;;;;;79.70;16.90;;;24.50;55.30;;;;;;5093296;28;20066;-74
2024/04/01 08:18:30;;;;;;;87.85;17.60;;;24.50;55.60;;;;;;5092806;28;20109;-74
2024/04/01 08:20:57;;;;;;;78.38;16.83;;;24.50;55.80;;;;;;5093339;28;20543;-74
2024/04/01 08:23:23;;;;;;;86.38;17.00;;;24.50;55.80;;;;;;5074821;28;20066;-76
2024/04/01 08:25:49;;;;;;;95.55;17.73;;;24.40;56.30;;;;;;5093225;28;20072;-75
2024/04/01 08:28:17;;;;;;;66.53;15.60;;;24.50;56.20;;;;;;5093175;28;20418;-73
2024/04/01 08:30:43;;;;;;;87.53;16.52;;;24.40;56.70;;;;;;5093200;28;20060;-73
2024/04/01 08:33:08;;;;;;;88.10;18.13;;;24.40;56.80;;;;;;5093087;28;20040;-74
2024/04/01 08:35:34;;;;;;;91.20;16.95;;;24.40;57.10;;;;;;5092803;28;20046;-74
2024/04/01 08:38:00;;;;;;;81.63;16.85;;;24.20;57.40;;;;;;5092974;28;20028;-74
2024/04/01 08:40:32;;;;;;;82.55;17.45;;;24.30;57.60;;;;;;5093316;28;20030;-73
2024/04/01 08:43:06;;;;;;;100.00;18.40;;;24.30;57.90;;;;;;5092704;28;20057;-73
2024/04/01 08:45:34;;;;;;;82.80;15.43;;;24.20;58.10;;;;;;5092859;28;20048;-72
2024/04/01 08:48:08;;;;;;;80.47;17.15;;;24.20;57.90;;;;;;5092845;28;20051;-75
2024/04/01 08:50:41;;;;;;;82.70;17.02;;;24.30;58.30;;;;;;5092858;28;20036;-74
2024/04/01 08:53:18;;;;;;;80.78;16.85;;;24.30;58.40;;;;;;5092494;28;20043;-74
2024/04/01 08:55:44;;;;;;;79.88;17.75;;;24.30;58.40;;;;;;5092748;28;20036;-74
2024/04/01 08:58:09;;;;;;;89.57;18.33;;;24.30;58.30;;;;;;5092576;28;20039;-74
2024/04/01 09:00:37;;;;;;;83.50;17.20;;;24.30;58.70;;;;;;5092683;28;20044;-74
2024/04/01 09:03:02;;;;;;;85.03;18.35;;;24.20;59.00;;;;;;5092588;28;20094;-73
2024/04/01 09:05:28;;;;;;;82.75;17.02;;;24.20;59.50;;;;;;5092363;28;20487;-75
2024/04/01 09:07:54;;;;;;;74.40;16.13;;;24.30;59.10;;;;;;5092514;28;20032;-73
2024/04/01 09:10:23;;;;;;;75.82;17.15;;;24.30;59.30;;;;;;5092768;28;20028;-73
2024/04/01 09:12:53;;;;;;;89.70;18.10;;;24.30;59.20;;;;;;5092726;28;20399;-73
2024/04/01 09:15:21;;;;;;;84.95;18.48;;;24.20;59.40;;;;;;5092595;28;20036;-73
2024/04/01 09:17:47;;;;;;;91.05;18.65;;;24.30;59.50;;;;;;5092763;28;20059;-72
2024/04/01 09:20:13;;;;;;;86.25;18.20;;;24.40;59.70;;;;;;5092545;28;20395;-73
2024/04/01 09:22:39;;;;;;;95.63;19.63;;;24.30;59.70;;;;;;5092826;28;20043;-73
2024/04/01 09:25:05;;;;;;;72.82;16.80;;;24.40;60.00;;;;;;5092578;28;20044;-71
2024/04/01 09:27:31;;;;;;;78.15;17.10;;;24.30;59.70;;;;;;5092658;28;20491;-73
2024/04/01 09:29:57;;;;;;;83.78;16.92;;;24.10;59.90;;;;;;5092438;28;20107;-74
2024/04/01 09:32:23;;;;;;;89.95;17.88;;;24.00;60.00;;;;;;5092456;28;20036;-74
2024/04/01 09:34:48;;;;;;;88.22;17.67;;;23.90;60.00;;;;;;5092561;28;20078;-75
2024/04/01 09:37:14;;;;;;;75.00;16.88;;;23.80;60.60;;;;;;5092479;28;20024;-73
2024/04/01 09:39:44;;;;;;;96.35;17.90;;;23.70;61.30;;;;;;5092281;28;20024;-74
2024/04/01 09:42:10;;;;;;;84.20;16.77;;;23.60;61.90;;;;;;5092470;28;20387;-73
2024/04/01 09:44:36;;;;;;;78.50;17.23;;;23.50;61.90;;;;;;5092277;28;20044;-73
2024/04/01 09:47:04;;;;;;;85.38;18.52;;;23.40;62.00;;;;;;5092174;28;20097;-73
2024/04/01 09:49:31;;;;;;;84.10;19.58;;;23.40;62.00;;;;;;5092258;28;20032;-73
2024/04/01 09:51:59;;;;;;;87.47;16.85;;;23.50;62.10;;;;;;5092383;28;20032;-73
2024/04/01 09:54:24;;;;;;;81.32;17.92;;;23.50;62.40;;;;;;5092425;28;20032;-75
2024/04/01 09:57:38;;;;;;;83.75;16.75;;;23.50;62.10;;;;;;5092067;28;20043;-73
2024/04/01 10:00:13;;;;;;;96.07;17.00;;;23.70;62.60;;;;;;5092213;28;20040;-73
2024/04/01 10:03:16;;;;;;;87.85;17.52;;;23.70;62.60;;;;;;5074227;28;20669;-74
2024/04/01 10:05:53;;;;;;;86.70;17.85;;;23.90;62.30;;;;;;5092567;28;20036;-74
2024/04/01 10:08:51;;;;;;;82.85;18.02;;;24.10;62.20;;;;;;5074133;28;20048;-74
2024/04/01 10:11:42;;;;;;;75.38;17.05;;;24.20;62.30;;;;;;5092111;28;20035;-74
2024/04/01 10:14:24;;;;;;;91.68;19.10;;;24.10;62.40;;;;;;5091927;28;20047;-72
2024/04/01 10:17:05;;;;;;;78.15;16.67;;;24.00;62.70;;;;;;5091933;28;20047;-72
2024/04/01 10:19:43;;;;;;;83.72;16.58;;;23.80;62.70;;;;;;5091624;28;20399;-72
2024/04/01 10:22:51;;;;;;;94.47;19.90;;;23.80;63.20;;;;;;5091544;28;20038;-73
2024/04/01 10:25:29;;;;;;;85.40;17.95;;;23.70;63.50;;;;;;5091618;28;20047;-74
2024/04/01 10:28:19;;;;;;;96.22;18.58;;;23.60;63.50;;;;;;5091977;28;20035;-74
2024/04/01 10:30:53;;;;;;;78.40;17.60;;;23.60;63.90;;;;;;5091609;28;20036;-74
2024/04/01 10:33:21;;;;;;;88.20;18.05;;;23.50;64.20;;;;;;5091790;28;20052;-73
2024/04/01 10:36:02;;;;;;;103.68;19.38;;;23.50;64.20;;;;;;5092321;28;20100;-74
2024/04/01 10:38:46;;;;;;;92.90;17.92;;;23.60;64.90;;;;;;5092285;28;20097;-74
2024/04/01 10:41:20;;;;;;;77.57;18.50;;;23.70;64.70;;;;;;5094080;28;20039;-73
2024/04/01 10:44:10;;;;;;;89.13;18.20;;;23.80;64.30;;;;;;5096155;28;20036;-74
2024/04/01 10:46:57;;;;;;;86.20;16.98;;;23.80;64.20;;;;;;5095649;28;20086;-74
2024/04/01 10:50:03;;;;;;;106.45;18.95;;;23.90;64.20;;;;;;5095361;28;20034;-74
2024/04/01 10:53:02;;;;;;;90.22;18.98;;;23.90;64.30;;;;;;5071652;28;20483;-74
2024/04/01 10:55:50;;;;;;;85.53;18.17;;;24.00;64.50;;;;;;5095269;28;20445;-74
2024/04/01 10:58:25;;;;;;;95.10;18.38;;;24.00;64.40;;;;;;5095136;28;20036;-73
2024/04/01 11:01:25;;;;;;;98.78;19.17;;;23.90;65.30;;;;;;5095369;28;20040;-74
2024/04/01 11:04:29;;;;;;;83.82;21.10;;;24.10;64.70;;;;;;5095518;28;20036;-72
2024/04/01 11:07:06;;;;;;;86.38;17.90;;;24.20;64.60;;;;;;5095094;28;20040;-74
2024/04/01 11:09:53;;;;;;;85.10;16.20;;;24.30;64.50;;;;;;5095014;28;20138;-73
2024/04/01 11:12:32;;;;;;;102.38;20.98;;;24.40;64.30;;;;;;5094579;28;20024;-73
2024/04/01 11:15:03;;;;;;;83.63;22.10;;;24.40;64.50;;;;;;5094906;28;20505;-73
2024/04/01 11:17:30;;;;;;;99.60;21.20;;;24.50;64.60;;;;;;5094871;28;20036;-73
2024/04/01 11:20:23;;;;;;;90.20;19.52;;;24.50;64.30;;;;;;5094388;28;20182;-74
2024/04/01 11:23:07;;;;;;;76.40;18.38;;;24.50;64.30;;;;;;5094814;28;20044;-74
2024/04/01 11:25:53;;;;;;;88.72;17.15;;;24.40;64.30;;;;;;5094621;28;20044;-74
2024/04/01 11:28:58;;;;;;;82.07;18.60;;;24.40;64.50;;;;;;5094721;28;20043;-74
2024/04/01 11:31:30;;;;;;;105.68;19.10;;;24.20;64.10;;;;;;5094404;28;20032;-73
2024/04/01 11:34:14;;;;;;;82.70;17.83;;;24.10;64.60;;;;;;5094765;28;20107;-73
2024/04/01 11:37:04;;;;;;;98.05;19.17;;;24.00;64.80;;;;;;5076377;28;20495;-74
2024/04/01 11:39:35;;;;;;;97.53;19.92;;;23.90;65.10;;;;;;5094392;28;20028;-74
2024/04/01 11:42:02;;;;;;;91.60;19.85;;;23.90;66.20;;;;;;5094662;28;20082;-74
2024/04/01 11:44:29;;;;;;;86.15;19.17;;;23.90;66.50;;;;;;5094767;28;20068;-73
2024/04/01 11:46:57;;;;;;;91.40;21.17;;;23.80;67.00;;;;;;5094503;28;20036;-73
2024/04/01 11:49:23;;;;;;;91.75;20.00;;;23.70;67.40;;;;;;5094498;28;20058;-73
2024/04/01 11:51:53;;;;;;;83.82;21.02;;;23.60;67.70;;;;;;5092903;28;20040;-75
2024/04/01 11:54:28;;;;;;;87.65;21.30;;;23.50;68.00;;;;;;5094273;28;20032;-75
2024/04/01 11:56:54;;;;;;;73.93;18.85;;;23.60;67.70;;;;;;5094419;28;20491;-74
2024/04/01 11:59:31;;;;;;;83.30;18.08;;;23.60;67.30;;;;;;5094264;28;20090;-73
2024/04/01 12:01:57;;;;;;;93.63;19.20;;;23.60;66.40;;;;;;5094858;28;20035;-74
2024/04/01 12:04:23;;;;;;;96.05;19.38;;;23.60;66.60;;;;;;5094156;28;20048;-74
2024/04/01 12:06:51;;;;;;;76.50;16.20;;;23.60;66.50;;;;;;5094217;28;20036;-74
2024/04/01 12:09:18;;;;;;;58.70;13.90;;;23.50;65.70;;;;;;5094373;28;20036;-75
2024/04/01 12:11:46;;;;;;;79.38;14.25;;;23.40;64.50;;;;;;5093284;28;20028;-73
2024/04/01 12:14:12;;;;;;;70.95;15.40;;;23.20;64.10;;;;;;5094372;28;20021;-74
2024/04/01 12:16:38;;;;;;;64.80;13.40;;;23.20;64.30;;;;;;5094130;28;20036;-74
2024/04/01 12:19:08;;;;;;;69.82;14.30;;;23.10;64.40;;;;;;5095929;28;20575;-74
2024/04/01 12:21:33;;;;;;;56.65;13.43;;;23.10;64.50;;;;;;5076177;28;20039;-74
2024/04/01 12:24:04;;;;;;;68.00;13.70;;;23.00;64.50;;;;;;5092724;28;20032;-74
2024/04/01 12:26:38;;;;;;;75.03;14.57;;;23.00;64.50;;;;;;5094352;28;20114;-73
2024/04/01 12:29:04;;;;;;;64.90;13.77;;;22.90;64.60;;;;;;5098064;28;20377;-73
2024/04/01 12:31:31;;;;;;;63.90;12.38;;;23.00;64.90;;;;;;5112291;28;20036;-74
2024/04/01 12:33:58;;;;;;;65.65;12.48;;;22.90;65.10;;;;;;5113598;28;20019;-73
2024/04/01 12:36:24;;;;;;;56.15;10.40;;;22.80;64.70;;;;;;5097384;28;20384;-73
2024/04/01 12:38:51;;;;;;;36.92;8.50;;;22.70;63.60;;;;;;5092282;28;20039;-74
2024/04/01 12:41:22;;;;;;;43.53;9.00;;;22.60;62.50;;;;;;5093587;28;20040;-74
2024/04/01 12:43:51;;;;;;;45.00;8.60;;;22.60;62.00;;;;;;5093413;28;20031;-74
2024/04/01 12:46:17;;;;;;;47.03;8.65;;;22.50;61.50;;;;;;5093361;28;20087;-73
2024/04/01 12:48:43;;;;;;;41.78;7.82;;;22.50;61.70;;;;;;5093125;28;20114;-74
2024/04/01 12:51:10;;;;;;;42.38;8.85;;;22.40;61.00;;;;;;5093261;28;20032;-74
2024/04/01 12:54:01;;;;;;;39.38;7.78;;;22.30;61.00;;;;;;5075344;28;20174;-74
2024/04/01 12:56:42;;;;;;;20.65;5.13;;;22.20;59.90;;;;;;5093407;28;20387;-74
2024/04/01 12:59:32;;;;;;;24.48;5.85;;;22.10;59.00;;;;;;5093251;28;20032;-74
2024/04/01 13:02:28;;;;;;;30.00;5.07;;;22.00;59.30;;;;;;5093702;28;20483;-73
2024/04/01 13:05:00;;;;;;;16.50;4.35;;;22.10;59.10;;;;;;5093427;28;20036;-75
2024/04/01 13:07:54;;;;;;;21.50;4.75;;;22.00;58.90;;;;;;5093518;28;20044;-74
2024/04/01 13:10:26;;;;;;;21.42;4.55;;;21.90;58.30;;;;;;5093377;28;20024;-74
2024/04/01 13:13:41;;;;;;;23.08;5.05;;;22.00;58.00;;;;;;5093109;28;20063;-73
2024/04/01 13:16:25;;;;;;;17.70;3.72;;;21.90;57.70;;;;;;5075754;28;20036;-74
2024/04/01 13:18:56;;;;;;;13.27;4.35;;;21.80;57.20;;;;;;5093124;28;20101;-74
2024/04/01 13:21:59;;;;;;;13.35;3.67;;;21.70;57.10;;;;;;5092805;28;20039;-73
2024/04/01 13:24:30;;;;;;;14.73;2.78;;;21.50;56.70;;;;;;5093809;28;20575;-74
2024/04/01 13:27:08;;;;;;;10.93;2.60;;;21.30;57.00;;;;;;5093509;28;20098;-74
2024/04/01 13:30:00;;;;;;;18.67;3.10;;;21.20;57.20;;;;;;5092932;28;20090;-69
2024/04/01 13:32:50;;;;;;;12.73;3.13;;;21.00;57.30;;;;;;5082210;28;20044;-74
2024/04/01 13:35:16;;;;;;;14.45;2.90;;;20.90;57.50;;;;;;5092774;28;20036;-73
2024/04/01 13:38:02;;;;;;;18.50;3.72;;;20.90;57.50;;;;;;5092778;28;20043;-73
2024/04/01 13:40:55;;;;;;;13.30;2.80;;;20.90;57.70;;;;;;5092123;28;20437;-74
2024/04/01 13:43:44;;;;;;;16.60;3.40;;;21.00;58.10;;;;;;5092788;28;20032;-74
2024/04/01 13:46:22;;;;;;;14.70;2.65;;;20.90;58.30;;;;;;5092812;28;20086;-73
2024/04/01 13:48:57;;;;;;;12.90;2.55;;;20.90;58.50;;;;;;5093131;28;20032;-74
2024/04/01 13:51:41;;;;;;;9.18;1.88;;;20.70;58.50;;;;;;5092603;28;20110;-74
2024/04/01 13:54:26;;;;;;;9.02;2.35;;;20.60;58.10;;;;;;5092526;28;20032;-73
2024/04/01 13:57:29;;;;;;;12.38;2.35;;;20.50;58.70;;;;;;5092305;28;20036;-73
2024/04/01 14:00:05;;;;;;;9.77;1.98;;;20.40;58.80;;;;;;5092380;28;20178;-74
2024/04/01 14:02:42;;;;;;;10.38;2.30;;;20.30;58.50;;;;;;5092448;28;20035;-72
2024/04/01 14:05:23;;;;;;;6.93;1.85;;;20.20;59.10;;;;;;5092178;28;20036;-73
2024/04/01 14:08:03;;;;;;;13.00;2.17;;;20.00;59.60;;;;;;5092248;28;20051;-74
2024/04/01 14:10:40;;;;;;;9.32;2.40;;;19.80;60.30;;;;;;5092604;28;20115;-73
2024/04/01 14:13:28;;;;;;;10.15;3.30;;;19.50;60.30;;;;;;5092354;28;20032;-74
2024/04/01 14:16:13;;;;;;;11.88;2.25;;;19.50;61.70;;;;;;5094350;28;20071;-73
2024/04/01 14:18:47;;;;;;;12.65;2.33;;;19.50;62.10;;;;;;5096308;28;20058;-73
2024/04/01 14:21:13;;;;;;;12.20;2.33;;;19.50;63.20;;;;;;5096050;28;20028;-73
2024/04/01 14:23:39;;;;;;;14.32;2.40;;;19.40;63.30;;;;;;5096189;28;20035;-74
2024/04/01 14:26:05;;;;;;;14.05;2.90;;;19.30;64.20;;;;;;5095873;28;20078;-73
2024/04/01 14:28:32;;;;;;;9.65;2.30;;;19.30;64.90;;;;;;5095989;28;20036;-73
2024/04/01 14:30:58;;;;;;;11.43;2.22;;;19.20;65.00;;;;;;5078691;28;20028;-75
2024/04/01 14:33:24;;;;;;;11.15;2.30;;;19.20;65.60;;;;;;5096819;28;20032;-74
2024/04/01 14:35:50;;;;;;;12.02;2.22;;;19.10;65.90;;;;;;5096905;28;20131;-73
2024/04/01 14:38:16;;;;;;;14.15;2.75;;;19.00;66.20;;;;;;5096175;28;20384;-74
2024/04/01 14:40:45;;;;;;;13.00;2.72;;;19.00;67.00;;;;;;5096434;28;20507;-75
2024/04/01 14:43:11;;;;;;;12.82;2.80;;;18.90;67.30;;;;;;5118944;28;20016;-72
2024/04/01 14:45:38;;;;;;;15.68;3.08;;;18.90;67.80;;;;;;5104969;28;20048;-73
2024/04/01 14:48:09;;;;;;;15.60;3.28;;;18.80;68.10;;;;;;5096554;28;20418;-74
2024/04/01 14:50:39;;;;;;;13.43;2.50;;;18.80;68.70;;;;;;5096246;28;20086;-73
2024/04/01 14:53:06;;;;;;;11.43;2.42;;;18.80;68.60;;;;;;5095921;28;20036;-72
2024/04/01 14:55:32;;;;;;;11.20;2.70;;;18.40;68.20;;;;;;5095983;28;20056;-72
2024/04/01 14:57:58;;;;;;;8.90;2.58;;;18.20;68.50;;;;;;5095496;28;20511;-72
2024/04/01 15:00:24;;;;;;;16.20;2.67;;;17.90;68.60;;;;;;5095905;28;20043;-74
2024/04/01 15:02:51;;;;;;;10.43;2.50;;;17.70;68.80;;;;;;5095925;28;20024;-74
2024/04/01 15:05:20;;;;;;;13.40;2.55;;;17.50;69.50;;;;;;5095680;28;20040;-72
2024/04/01 15:07:46;;;;;;;11.10;2.67;;;17.40;70.00;;;;;;5095353;28;20055;-74